Time;durP1;ratioP1;P1;durP2;ratioP2;P2;SDS_P1;SDS_P2;PMS_P1;PMS_P2;Temp;Humidity;BMP_temperature;BMP_pressure;BME280_temperature;BME280_humidity;BME280_pressure;Samples;Min_cycle;Max_cycle;Signal;HPM_P1;HPM_P2
2022/08/07 00:01:38;;;;;;;2.50;2.13;;;19.10;52.40;;;;;;4978008;28;20478;-80
2022/08/07 00:04:05;;;;;;;4.03;2.10;;;19.10;52.60;;;;;;4981124;28;20448;-81
2022/08/07 00:06:31;;;;;;;2.63;1.70;;;19.00;52.70;;;;;;4992107;28;20463;-80
2022/08/07 00:08:58;;;;;;;3.00;2.20;;;18.90;52.80;;;;;;4994854;28;20440;-80
2022/08/07 00:11:25;;;;;;;6.20;2.33;;;19.00;52.70;;;;;;4983286;28;20511;-80
2022/08/07 00:13:51;;;;;;;2.90;1.97;;;18.90;52.90;;;;;;4985902;28;20468;-80
2022/08/07 00:16:18;;;;;;;3.13;2.47;;;18.90;52.90;;;;;;4983947;28;20460;-80
2022/08/07 00:18:46;;;;;;;4.33;2.00;;;18.80;53.10;;;;;;4980721;28;20550;-81
2022/08/07 00:21:13;;;;;;;5.07;1.83;;;18.90;53.30;;;;;;4989049;28;20460;-79
2022/08/07 00:23:40;;;;;;;2.50;2.00;;;18.80;53.50;;;;;;4986944;28;20444;-81
2022/08/07 00:26:09;;;;;;;2.47;1.93;;;18.80;53.90;;;;;;4984676;28;20888;-79
2022/08/07 00:28:36;;;;;;;3.27;2.73;;;18.90;54.00;;;;;;4983993;28;20440;-80
2022/08/07 00:31:04;;;;;;;2.23;1.90;;;18.80;54.30;;;;;;4992244;28;20499;-79
2022/08/07 00:33:30;;;;;;;2.07;1.73;;;18.70;54.30;;;;;;4993110;28;20499;-80
2022/08/07 00:35:59;;;;;;;2.73;1.77;;;18.70;54.40;;;;;;4986830;28;20440;-79
2022/08/07 00:38:25;;;;;;;2.20;1.93;;;18.70;54.60;;;;;;4980802;28;20484;-79
2022/08/07 00:40:52;;;;;;;2.20;2.00;;;18.70;54.70;;;;;;4981243;28;20469;-80
2022/08/07 00:43:19;;;;;;;4.30;1.80;;;18.60;54.90;;;;;;4980930;28;20496;-80
2022/08/07 00:45:47;;;;;;;2.10;1.90;;;18.60;55.00;;;;;;4979795;28;20452;-81
2022/08/07 00:48:14;;;;;;;3.57;1.80;;;18.60;54.80;;;;;;4989880;28;20440;-80
2022/08/07 00:50:41;;;;;;;2.93;2.23;;;18.60;54.80;;;;;;4992274;28;20457;-80
2022/08/07 00:53:09;;;;;;;4.13;2.30;;;18.50;55.00;;;;;;4990890;28;20543;-80
2022/08/07 00:55:37;;;;;;;4.10;2.30;;;18.60;55.20;;;;;;4985788;28;21012;-80
2022/08/07 00:58:04;;;;;;;3.10;2.20;;;18.50;55.50;;;;;;4981278;28;20526;-80
2022/08/07 01:00:31;;;;;;;2.60;2.00;;;18.50;55.70;;;;;;4980743;28;20488;-80
2022/08/07 01:02:57;;;;;;;4.40;2.13;;;18.50;55.80;;;;;;4980348;28;20953;-81
2022/08/07 01:05:26;;;;;;;3.50;2.27;;;18.50;55.80;;;;;;4980306;28;20452;-80
2022/08/07 01:07:53;;;;;;;6.50;2.10;;;18.50;56.00;;;;;;4980620;28;20541;-80
2022/08/07 01:10:21;;;;;;;2.90;1.97;;;18.50;56.10;;;;;;4980066;28;20479;-80
2022/08/07 01:12:49;;;;;;;4.00;1.93;;;18.40;56.10;;;;;;4980471;28;20460;-81
2022/08/07 01:15:16;;;;;;;3.77;2.47;;;18.50;56.40;;;;;;4980205;28;20460;-80
2022/08/07 01:17:43;;;;;;;2.50;2.30;;;18.50;56.50;;;;;;4982852;28;20499;-80
2022/08/07 01:20:13;;;;;;;4.70;2.73;;;18.50;56.60;;;;;;4981927;28;20467;-80
2022/08/07 01:22:42;;;;;;;3.53;2.90;;;18.40;56.30;;;;;;4979855;28;20802;-80
2022/08/07 01:25:11;;;;;;;4.40;2.67;;;18.40;56.20;;;;;;4980513;28;20452;-80
2022/08/07 01:27:38;;;;;;;3.50;2.03;;;18.40;56.50;;;;;;4980355;28;20453;-80
2022/08/07 01:30:06;;;;;;;4.30;1.97;;;18.30;56.50;;;;;;4980324;28;21000;-80
2022/08/07 01:32:33;;;;;;;4.67;2.10;;;18.30;56.40;;;;;;4980387;28;20452;-80
2022/08/07 01:35:01;;;;;;;6.97;2.57;;;18.30;55.90;;;;;;4978933;28;20456;-80
2022/08/07 01:37:28;;;;;;;3.90;2.00;;;18.30;56.10;;;;;;4979290;28;20487;-80
2022/08/07 01:39:58;;;;;;;2.90;2.00;;;18.30;56.50;;;;;;4979420;28;20892;-80
2022/08/07 01:42:25;;;;;;;3.60;1.90;;;18.20;57.10;;;;;;4979897;28;20961;-80
2022/08/07 01:44:53;;;;;;;3.70;2.07;;;18.20;57.40;;;;;;4979468;28;20448;-80
2022/08/07 01:47:20;;;;;;;2.30;1.97;;;18.20;56.90;;;;;;4987487;28;20449;-79
2022/08/07 01:49:46;;;;;;;2.20;1.73;;;18.10;57.10;;;;;;4996500;28;20460;-78
2022/08/07 01:52:14;;;;;;;3.50;2.20;;;18.10;57.10;;;;;;4996885;28;20444;-79
2022/08/07 01:54:43;;;;;;;3.50;2.00;;;18.10;57.60;;;;;;4995197;28;20458;-80
2022/08/07 01:57:18;;;;;;;3.67;1.90;;;17.90;57.70;;;;;;4980902;28;21144;-80
2022/08/07 01:59:50;;;;;;;3.33;2.10;;;17.90;57.90;;;;;;4979681;28;20515;-80
2022/08/07 02:02:21;;;;;;;2.53;2.00;;;17.90;58.00;;;;;;4980224;28;20453;-80
2022/08/07 02:04:53;;;;;;;2.27;1.87;;;17.90;58.30;;;;;;4988221;28;20521;-80
2022/08/07 02:07:23;;;;;;;2.60;1.90;;;17.80;57.90;;;;;;4989313;28;20445;-80
2022/08/07 02:09:52;;;;;;;3.40;1.90;;;17.90;58.20;;;;;;4988973;28;20456;-80
2022/08/07 02:12:21;;;;;;;2.13;1.93;;;17.80;58.40;;;;;;4979539;28;20444;-80
2022/08/07 02:14:51;;;;;;;3.00;2.00;;;17.80;58.70;;;;;;4979739;28;20452;-80
2022/08/07 02:17:19;;;;;;;3.13;2.20;;;17.70;58.70;;;;;;4992077;28;20495;-80
2022/08/07 02:19:49;;;;;;;4.07;2.07;;;17.70;59.00;;;;;;4989153;28;20484;-81
2022/08/07 02:22:19;;;;;;;2.50;2.10;;;17.60;59.60;;;;;;4989694;28;21006;-80
2022/08/07 02:24:48;;;;;;;3.10;2.10;;;17.60;59.60;;;;;;4979570;28;20957;-80
2022/08/07 02:27:18;;;;;;;2.00;1.80;;;17.60;59.50;;;;;;4979242;28;20468;-80
2022/08/07 02:29:48;;;;;;;2.30;2.10;;;17.60;59.50;;;;;;4993700;28;20452;-80
2022/08/07 02:32:16;;;;;;;2.60;1.80;;;17.60;59.50;;;;;;4995156;28;20460;-80
2022/08/07 02:34:44;;;;;;;1.70;1.53;;;17.60;59.60;;;;;;4986771;28;20855;-80
2022/08/07 02:37:12;;;;;;;2.83;1.70;;;17.60;59.50;;;;;;4984407;28;20978;-80
2022/08/07 02:39:42;;;;;;;4.67;2.33;;;17.60;59.40;;;;;;4978990;28;20495;-80
2022/08/07 02:42:09;;;;;;;2.40;1.93;;;17.50;59.60;;;;;;4980161;28;20479;-79
2022/08/07 02:44:37;;;;;;;2.23;1.97;;;17.60;59.80;;;;;;4979636;28;20479;-79
2022/08/07 02:47:06;;;;;;;2.27;1.80;;;17.50;59.80;;;;;;4980144;28;20452;-80
2022/08/07 02:49:33;;;;;;;2.70;2.00;;;17.50;59.90;;;;;;4976085;28;20467;-80
2022/08/07 02:52:02;;;;;;;2.17;1.97;;;17.50;60.10;;;;;;4974374;28;20456;-80
2022/08/07 02:54:32;;;;;;;2.60;1.87;;;17.40;60.50;;;;;;4973886;28;20455;-80
2022/08/07 02:57:01;;;;;;;1.87;1.70;;;17.50;60.60;;;;;;4975533;28;20463;-80
2022/08/07 02:59:29;;;;;;;2.90;1.87;;;17.50;60.20;;;;;;4978322;28;20484;-80
2022/08/07 03:01:57;;;;;;;3.80;2.10;;;17.40;60.90;;;;;;5000930;23;20495;-77
2022/08/07 03:04:27;;;;;;;2.53;2.03;;;17.40;60.10;;;;;;4991662;28;20842;-77
2022/08/07 03:06:54;;;;;;;4.33;2.17;;;17.40;60.10;;;;;;4993775;28;20461;-77
2022/08/07 03:09:22;;;;;;;2.03;1.53;;;17.40;60.20;;;;;;4993021;28;20526;-78
2022/08/07 03:11:50;;;;;;;3.80;1.77;;;17.40;60.00;;;;;;4993277;28;21003;-77
2022/08/07 03:14:17;;;;;;;1.77;1.60;;;17.40;60.00;;;;;;4994710;28;20799;-78
2022/08/07 03:16:45;;;;;;;2.67;1.40;;;17.40;60.10;;;;;;4999566;28;20458;-78
2022/08/07 03:19:12;;;;;;;1.93;1.70;;;17.40;60.30;;;;;;4996834;28;20530;-79
2022/08/07 03:21:40;;;;;;;3.10;1.90;;;17.30;60.50;;;;;;4996429;28;20541;-78
2022/08/07 03:24:07;;;;;;;2.83;1.87;;;17.30;60.60;;;;;;4997811;28;20474;-78
2022/08/07 03:26:36;;;;;;;2.00;1.80;;;17.30;61.10;;;;;;4999988;28;20514;-79
2022/08/07 03:29:06;;;;;;;2.67;2.27;;;17.20;61.30;;;;;;4999800;28;20964;-78
2022/08/07 03:31:36;;;;;;;2.00;1.80;;;17.20;61.30;;;;;;4999343;28;20485;-77
2022/08/07 03:34:04;;;;;;;1.70;1.60;;;17.20;61.60;;;;;;4998941;28;20872;-77
2022/08/07 03:36:33;;;;;;;5.30;1.90;;;17.20;62.00;;;;;;4998497;28;20467;-77
2022/08/07 03:39:05;;;;;;;2.70;1.80;;;17.10;62.10;;;;;;4999450;28;20486;-78
2022/08/07 03:41:33;;;;;;;3.23;2.13;;;17.10;62.50;;;;;;5002803;28;20475;-78
2022/08/07 03:44:00;;;;;;;5.47;2.00;;;17.10;63.30;;;;;;5007926;28;20538;-78
2022/08/07 03:46:29;;;;;;;2.30;2.10;;;17.10;63.40;;;;;;5005849;28;20449;-78
2022/08/07 03:48:56;;;;;;;3.00;1.90;;;17.10;64.00;;;;;;5005207;28;20443;-79
2022/08/07 03:51:23;;;;;;;2.37;2.00;;;17.10;64.50;;;;;;4998469;28;20493;-78
2022/08/07 03:53:50;;;;;;;3.57;1.77;;;17.00;66.20;;;;;;4997427;28;20556;-79
2022/08/07 03:56:20;;;;;;;2.50;2.30;;;16.90;66.00;;;;;;4996406;28;20451;-79
2022/08/07 03:58:47;;;;;;;3.73;2.03;;;16.80;66.20;;;;;;4996704;28;20451;-76
2022/08/07 04:01:16;;;;;;;1.93;1.73;;;16.80;66.20;;;;;;4996016;28;20833;-77
2022/08/07 04:03:43;;;;;;;2.90;2.07;;;16.90;66.00;;;;;;4997405;28;20828;-78
2022/08/07 04:06:11;;;;;;;2.97;2.33;;;17.00;66.60;;;;;;5000246;28;20451;-77
2022/08/07 04:08:40;;;;;;;2.20;1.83;;;17.00;66.80;;;;;;4998145;28;20447;-77
2022/08/07 04:11:07;;;;;;;3.70;1.80;;;17.00;66.90;;;;;;5002727;28;20506;-77
2022/08/07 04:13:36;;;;;;;3.97;1.83;;;17.00;66.70;;;;;;5006762;28;20447;-77
2022/08/07 04:16:03;;;;;;;2.33;2.00;;;17.00;67.00;;;;;;5000715;28;21138;-77
2022/08/07 04:18:30;;;;;;;4.37;2.47;;;17.00;67.20;;;;;;4995095;28;20462;-77
2022/08/07 04:20:57;;;;;;;3.00;2.27;;;16.90;68.00;;;;;;4994902;28;20483;-77
2022/08/07 04:23:25;;;;;;;2.93;1.70;;;17.00;67.30;;;;;;4996426;28;20443;-77
2022/08/07 04:25:52;;;;;;;4.47;1.90;;;17.00;67.30;;;;;;4994202;28;20455;-77
2022/08/07 04:28:20;;;;;;;2.90;2.00;;;17.00;67.20;;;;;;4994824;28;20454;-77
2022/08/07 04:30:49;;;;;;;2.67;2.10;;;17.10;67.10;;;;;;4994659;28;20567;-78
2022/08/07 04:33:17;;;;;;;3.30;1.87;;;17.10;66.90;;;;;;4995033;28;20465;-77
2022/08/07 04:35:46;;;;;;;2.93;1.87;;;17.10;66.90;;;;;;4998279;28;20471;-77
2022/08/07 04:38:14;;;;;;;2.70;1.97;;;17.10;67.10;;;;;;4994649;28;21007;-77
2022/08/07 04:40:42;;;;;;;6.10;2.30;;;17.10;67.20;;;;;;4993839;28;20547;-77
2022/08/07 04:43:09;;;;;;;2.50;1.80;;;17.30;67.60;;;;;;4994317;28;20455;-78
2022/08/07 04:45:46;;;;;;;2.40;1.90;;;17.20;68.60;;;;;;4994116;28;20447;-78
2022/08/07 04:48:26;;;;;;;4.20;2.83;;;17.30;67.70;;;;;;4996330;28;20450;-78
2022/08/07 04:51:01;;;;;;;4.40;2.00;;;17.20;68.10;;;;;;4997059;28;20467;-77
2022/08/07 04:53:35;;;;;;;2.43;2.10;;;17.30;69.50;;;;;;4995371;28;20465;-77
2022/08/07 04:56:07;;;;;;;3.50;1.80;;;17.30;70.00;;;;;;4994341;28;20459;-78
2022/08/07 04:58:43;;;;;;;6.50;2.27;;;17.40;69.90;;;;;;4994291;28;20452;-78
2022/08/07 05:01:16;;;;;;;3.73;2.20;;;17.40;69.40;;;;;;4994399;28;20498;-77
2022/08/07 05:03:49;;;;;;;2.93;2.47;;;17.50;69.70;;;;;;4998406;28;20440;-78
2022/08/07 05:06:22;;;;;;;2.77;2.20;;;17.50;69.70;;;;;;5000801;28;20435;-77
2022/08/07 05:08:52;;;;;;;2.27;2.07;;;17.90;69.20;;;;;;5000673;28;20451;-78
2022/08/07 05:11:24;;;;;;;2.77;2.17;;;18.50;67.40;;;;;;4996510;28;20471;-79
2022/08/07 05:13:54;;;;;;;2.40;2.20;;;19.00;65.40;;;;;;4994879;28;20948;-79
2022/08/07 05:16:23;;;;;;;2.30;2.10;;;19.50;63.20;;;;;;4994597;28;20452;-78
2022/08/07 05:18:56;;;;;;;2.23;1.80;;;20.10;61.40;;;;;;4994862;28;20463;-79
2022/08/07 05:21:27;;;;;;;2.63;2.13;;;20.50;59.70;;;;;;4994625;28;20455;-78
2022/08/07 05:23:58;;;;;;;2.40;1.97;;;21.00;58.80;;;;;;4995286;28;20944;-78
2022/08/07 05:26:28;;;;;;;4.93;2.33;;;21.40;57.80;;;;;;5011663;28;20439;-79
2022/08/07 05:28:57;;;;;;;3.50;2.30;;;21.80;56.80;;;;;;5005919;28;20463;-78
2022/08/07 05:31:29;;;;;;;3.10;2.80;;;22.20;56.00;;;;;;5000380;28;20467;-78
2022/08/07 05:33:58;;;;;;;3.07;2.20;;;22.60;55.10;;;;;;4995676;28;20526;-77
2022/08/07 05:36:26;;;;;;;2.00;1.67;;;22.90;54.10;;;;;;4997822;28;20443;-78
2022/08/07 05:38:54;;;;;;;2.10;1.90;;;23.20;53.70;;;;;;4999125;28;20431;-78
2022/08/07 05:41:22;;;;;;;2.57;1.90;;;23.60;53.20;;;;;;4998265;28;20498;-79
2022/08/07 05:43:51;;;;;;;2.60;2.17;;;23.90;52.60;;;;;;4998486;28;20833;-77
2022/08/07 05:46:20;;;;;;;2.70;2.10;;;24.20;52.10;;;;;;4995785;28;20452;-78
2022/08/07 05:48:49;;;;;;;2.60;2.30;;;24.40;51.60;;;;;;4996742;28;20825;-79
2022/08/07 05:51:18;;;;;;;5.00;2.40;;;24.70;51.60;;;;;;4997526;28;20464;-79
2022/08/07 05:53:45;;;;;;;5.10;2.80;;;25.10;51.30;;;;;;4999132;28;20829;-78
2022/08/07 05:56:15;;;;;;;3.50;2.50;;;25.50;50.40;;;;;;4998473;28;20448;-76
2022/08/07 05:58:45;;;;;;;2.60;2.40;;;25.90;50.10;;;;;;5014308;28;20470;-77
2022/08/07 06:01:13;;;;;;;3.00;2.70;;;26.20;49.60;;;;;;5015313;28;20491;-77
2022/08/07 06:03:48;;;;;;;3.73;2.77;;;26.30;49.60;;;;;;5004511;28;20439;-76
2022/08/07 06:06:17;;;;;;;2.60;2.40;;;26.40;49.30;;;;;;4993894;28;20472;-78
2022/08/07 06:08:44;;;;;;;3.23;2.63;;;26.60;48.90;;;;;;4994812;28;20462;-78
2022/08/07 06:11:12;;;;;;;2.33;2.13;;;26.80;49.00;;;;;;4994616;28;20466;-78
2022/08/07 06:13:39;;;;;;;2.97;2.30;;;27.30;48.10;;;;;;4994332;28;20458;-78
2022/08/07 06:16:07;;;;;;;5.53;2.70;;;27.60;47.40;;;;;;4994243;28;20840;-78
2022/08/07 06:18:35;;;;;;;2.70;2.50;;;27.70;47.30;;;;;;4996845;28;20462;-77
2022/08/07 06:21:03;;;;;;;2.60;2.40;;;27.80;47.80;;;;;;4995530;28;20502;-77
2022/08/07 06:23:32;;;;;;;3.20;2.90;;;28.30;46.90;;;;;;4993653;28;20460;-78
2022/08/07 06:25:59;;;;;;;4.20;2.80;;;28.80;46.20;;;;;;4993231;28;20462;-77
2022/08/07 06:28:27;;;;;;;3.40;3.10;;;29.10;45.70;;;;;;4994587;28;20460;-77
2022/08/07 06:30:53;;;;;;;3.50;3.13;;;29.20;45.90;;;;;;4994034;28;20518;-77
2022/08/07 06:33:21;;;;;;;3.20;2.90;;;28.70;46.80;;;;;;4992652;28;20474;-77
2022/08/07 06:35:47;;;;;;;3.53;3.23;;;28.30;47.80;;;;;;4994781;28;20452;-77
2022/08/07 06:38:14;;;;;;;6.13;3.53;;;28.40;48.70;;;;;;4993239;28;20452;-77
2022/08/07 06:40:46;;;;;;;4.00;3.60;;;28.30;48.60;;;;;;4997605;28;20492;-78
2022/08/07 06:43:15;;;;;;;3.10;2.80;;;28.70;48.60;;;;;;4993456;28;20449;-77
2022/08/07 06:45:42;;;;;;;3.83;3.53;;;29.20;47.70;;;;;;4994236;28;20534;-77
2022/08/07 06:48:09;;;;;;;4.33;4.03;;;29.30;47.40;;;;;;4993333;28;20458;-77
2022/08/07 06:50:40;;;;;;;3.47;3.27;;;29.50;47.70;;;;;;4995246;28;20472;-77
2022/08/07 06:53:08;;;;;;;3.40;3.10;;;29.90;47.50;;;;;;4996523;28;20463;-77
2022/08/07 06:55:35;;;;;;;3.93;3.50;;;29.70;47.90;;;;;;4996465;28;20544;-77
2022/08/07 06:58:07;;;;;;;3.97;3.60;;;29.40;48.10;;;;;;4996615;28;20451;-78
2022/08/07 07:00:37;;;;;;;3.83;3.53;;;29.30;48.50;;;;;;4995978;28;20916;-78
2022/08/07 07:03:05;;;;;;;3.57;3.37;;;29.20;48.60;;;;;;4996629;28;20459;-77
2022/08/07 07:05:32;;;;;;;3.87;3.47;;;29.60;48.50;;;;;;4996918;28;20459;-77
2022/08/07 07:07:58;;;;;;;3.87;3.57;;;29.10;49.10;;;;;;4997584;28;20835;-77
2022/08/07 07:10:30;;;;;;;3.43;3.13;;;28.80;49.70;;;;;;4996759;28;20453;-78
2022/08/07 07:13:14;;;;;;;5.00;3.40;;;28.00;50.60;;;;;;4996674;28;20488;-77
2022/08/07 07:15:46;;;;;;;3.73;2.97;;;28.80;49.80;;;;;;4996419;28;20468;-77
2022/08/07 07:18:18;;;;;;;3.37;3.07;;;30.10;48.10;;;;;;4996668;28;20465;-78
2022/08/07 07:20:52;;;;;;;3.33;3.10;;;30.80;46.60;;;;;;4996698;28;20497;-78
2022/08/07 07:23:19;;;;;;;2.90;2.70;;;31.50;45.10;;;;;;4996960;28;20457;-77
2022/08/07 07:25:50;;;;;;;3.23;2.93;;;32.10;44.10;;;;;;4998041;28;20453;-77
2022/08/07 07:28:22;;;;;;;2.73;2.53;;;31.50;43.60;;;;;;5004797;28;20474;-78
2022/08/07 07:30:57;;;;;;;2.77;2.30;;;30.50;44.80;;;;;;4996852;28;20468;-77
2022/08/07 07:33:24;;;;;;;3.60;2.67;;;30.10;45.20;;;;;;4996430;28;20547;-78
2022/08/07 07:35:53;;;;;;;2.73;2.53;;;29.70;45.60;;;;;;4996668;28;20470;-78
2022/08/07 07:38:24;;;;;;;3.17;2.37;;;30.30;45.30;;;;;;4997038;28;20454;-78
2022/08/07 07:40:54;;;;;;;3.43;2.10;;;30.20;43.90;;;;;;4996440;28;20494;-78
2022/08/07 07:43:22;;;;;;;2.70;2.50;;;29.70;45.00;;;;;;4995974;28;20819;-77
2022/08/07 07:45:51;;;;;;;3.23;2.50;;;31.00;44.00;;;;;;4997113;28;20830;-77
2022/08/07 07:48:21;;;;;;;2.60;2.40;;;31.80;42.20;;;;;;4997086;28;20443;-77
2022/08/07 07:50:52;;;;;;;3.30;1.97;;;32.00;41.70;;;;;;4999479;28;20465;-77
2022/08/07 07:53:22;;;;;;;2.20;2.00;;;32.80;40.90;;;;;;5003730;28;20506;-77
2022/08/07 07:55:49;;;;;;;2.13;1.77;;;33.30;39.30;;;;;;5002801;28;20458;-79
2022/08/07 07:58:17;;;;;;;1.90;1.73;;;33.00;39.50;;;;;;4997512;28;20459;-80
2022/08/07 08:00:46;;;;;;;2.73;1.70;;;33.30;38.50;;;;;;4998044;28;20497;-78
2022/08/07 08:03:16;;;;;;;2.10;1.90;;;33.80;37.80;;;;;;5001261;28;20461;-79
2022/08/07 08:05:43;;;;;;;3.47;1.90;;;33.90;37.20;;;;;;5000783;28;20457;-85
2022/08/07 08:08:14;;;;;;;1.90;1.80;;;33.60;36.90;;;;;;5002668;28;20548;-86
2022/08/07 08:10:41;;;;;;;2.67;1.70;;;33.60;36.30;;;;;;4997987;28;20506;-87
2022/08/07 08:13:14;;;;;;;4.50;1.70;;;33.10;36.90;;;;;;4998420;28;20447;-86
2022/08/07 08:15:42;;;;;;;2.57;1.70;;;33.60;36.60;;;;;;4999340;28;20458;-86
2022/08/07 08:18:11;;;;;;;2.27;1.80;;;33.80;35.70;;;;;;5012509;28;20440;-87
2022/08/07 08:20:40;;;;;;;2.17;1.50;;;33.40;35.30;;;;;;5016956;28;20485;-86
2022/08/07 08:28:42;;;;;;;1.97;1.63;;;31.90;36.70;;;;;;4997435;28;21027;-86
2022/08/07 08:31:12;;;;;;;2.07;1.80;;;32.00;36.70;;;;;;4996918;28;20466;-86
2022/08/07 08:33:40;;;;;;;2.03;1.17;;;32.40;36.00;;;;;;4997151;28;20446;-86
2022/08/07 08:36:11;;;;;;;1.60;1.50;;;32.10;37.00;;;;;;5007340;28;20433;-85
2022/08/07 08:38:41;;;;;;;2.60;1.47;;;33.30;35.30;;;;;;5018339;28;20469;-86
2022/08/07 08:41:18;;;;;;;2.30;1.40;;;33.90;35.00;;;;;;5016361;28;20478;-85
2022/08/07 08:43:51;;;;;;;3.33;1.83;;;33.70;34.50;;;;;;5013093;28;20480;-86
2022/08/07 08:46:25;;;;;;;2.57;1.80;;;31.90;34.90;;;;;;5010874;28;20437;-86
2022/08/07 08:48:59;;;;;;;6.60;1.33;;;32.10;34.60;;;;;;5016071;28;20445;-86
2022/08/07 08:51:32;;;;;;;2.33;1.57;;;33.40;33.60;;;;;;5000023;28;20489;-86
2022/08/07 08:54:06;;;;;;;3.17;2.00;;;33.60;32.70;;;;;;4994565;28;20446;-86
2022/08/07 08:56:37;;;;;;;1.87;1.67;;;32.60;33.60;;;;;;4992037;28;20527;-87
2022/08/07 08:59:14;;;;;;;2.40;1.70;;;32.30;33.80;;;;;;4992610;28;20499;-85
2022/08/07 09:01:46;;;;;;;1.63;1.40;;;32.70;34.10;;;;;;4993983;28;20565;-87
2022/08/07 09:04:18;;;;;;;2.07;1.20;;;33.00;33.20;;;;;;4991863;28;20473;-87
2022/08/07 09:06:56;;;;;;;1.50;1.30;;;33.60;32.50;;;;;;4993481;28;20515;-87
2022/08/07 09:09:58;;;;;;;2.10;1.27;;;34.00;31.60;;;;;;4991525;28;20821;-87
2022/08/07 09:12:42;;;;;;;2.40;1.10;;;33.60;31.50;;;;;;4982151;28;20469;-86
2022/08/07 09:15:25;;;;;;;2.20;1.30;;;33.80;32.00;;;;;;5003748;28;20461;-86
2022/08/07 09:18:05;;;;;;;1.87;1.03;;;35.60;29.60;;;;;;4994832;28;20437;-86
2022/08/07 09:20:45;;;;;;;3.03;1.23;;;35.30;29.40;;;;;;4994751;28;21004;-85
2022/08/07 09:23:26;;;;;;;3.10;1.40;;;36.20;28.80;;;;;;5007999;28;20450;-86
2022/08/07 09:26:05;;;;;;;1.40;1.10;;;35.90;28.50;;;;;;5009520;28;20476;-86
2022/08/07 09:28:38;;;;;;;1.60;1.00;;;35.10;29.50;;;;;;4996125;28;20459;-86
2022/08/07 09:31:12;;;;;;;1.30;1.20;;;33.40;30.00;;;;;;4999864;28;20457;-86
2022/08/07 09:34:06;;;;;;;1.83;1.37;;;34.50;29.90;;;;;;5070607;27;1305053;-86
2022/08/07 09:36:37;;;;;;;3.97;1.33;;;34.70;29.20;;;;;;5109934;28;20453;-86
2022/08/07 09:39:16;;;;;;;1.90;1.20;;;34.60;29.20;;;;;;5113741;28;20447;-85
2022/08/07 09:41:47;;;;;;;2.90;1.10;;;34.70;28.30;;;;;;5096500;28;20459;-85
2022/08/07 09:44:23;;;;;;;2.43;1.13;;;35.10;28.30;;;;;;5104265;28;20432;-86
2022/08/07 09:47:07;;;;;;;1.50;1.10;;;33.90;28.90;;;;;;5116184;28;20436;-86
2022/08/07 09:49:53;;;;;;;1.70;1.33;;;34.60;29.10;;;;;;5104314;28;20452;-87
2022/08/07 09:52:23;;;;;;;3.60;1.03;;;35.00;28.80;;;;;;5091065;28;20483;-87
2022/08/07 09:54:57;;;;;;;2.00;1.00;;;34.90;27.50;;;;;;5094266;28;20441;-86
2022/08/07 09:57:55;;;;;;;1.50;1.10;;;35.20;27.50;;;;;;5098509;28;20441;-86
2022/08/07 10:00:31;;;;;;;1.50;0.80;;;35.20;27.50;;;;;;5093849;28;20468;-86
2022/08/07 10:03:50;;;;;;;1.30;1.00;;;35.30;27.10;;;;;;5116522;28;20492;-86
2022/08/07 10:06:45;;;;;;;1.77;0.93;;;35.30;27.10;;;;;;5037052;28;20970;-87
2022/08/07 10:09:29;;;;;;;1.37;0.83;;;35.90;27.20;;;;;;5023284;28;20804;-87
2022/08/07 10:12:15;;;;;;;1.30;1.10;;;37.10;25.90;;;;;;5093200;28;20507;-87
2022/08/07 10:15:07;;;;;;;1.30;0.93;;;37.30;25.30;;;;;;5125121;28;20434;-85
2022/08/07 10:17:59;;;;;;;2.27;1.10;;;37.40;25.10;;;;;;5080533;28;20945;-86
2022/08/07 10:20:37;;;;;;;1.50;1.07;;;36.60;25.10;;;;;;5114850;28;20473;-85
2022/08/07 10:23:26;;;;;;;3.10;1.00;;;36.50;25.70;;;;;;5091695;28;20442;-86
2022/08/07 10:26:06;;;;;;;1.97;1.37;;;38.20;24.70;;;;;;5090960;28;20447;-85
2022/08/07 10:28:50;;;;;;;1.40;1.00;;;39.20;24.00;;;;;;5105935;28;20548;-86
2022/08/07 10:31:45;;;;;;;1.40;1.10;;;38.20;24.40;;;;;;5106528;28;20462;-86
2022/08/07 10:34:27;;;;;;;2.17;1.40;;;37.90;24.20;;;;;;5090842;28;20445;-86
2022/08/07 10:37:06;;;;;;;2.23;1.13;;;38.20;24.30;;;;;;5091014;28;20425;-86
2022/08/07 10:39:46;;;;;;;4.30;2.40;;;39.40;23.80;;;;;;5097041;28;20438;-86
2022/08/07 10:42:24;;;;;;;3.50;2.33;;;39.30;23.70;;;;;;5113028;28;20476;-87
2022/08/07 10:45:01;;;;;;;2.90;1.23;;;40.00;23.30;;;;;;5081096;28;20438;-87
2022/08/07 10:47:36;;;;;;;1.17;0.70;;;41.60;22.80;;;;;;5090641;28;20971;-86
2022/08/07 10:50:08;;;;;;;2.23;1.53;;;42.30;22.30;;;;;;5091860;28;20442;-86
2022/08/07 10:52:45;;;;;;;1.90;1.00;;;40.70;22.70;;;;;;5088019;28;20494;-86
2022/08/07 10:55:18;;;;;;;4.00;1.90;;;41.90;22.30;;;;;;5107234;28;20446;-85
2022/08/07 10:57:56;;;;;;;1.93;1.40;;;39.40;22.90;;;;;;5102370;28;20446;-86
2022/08/07 11:00:31;;;;;;;1.17;0.83;;;36.90;25.20;;;;;;5094331;28;20468;-87
2022/08/07 11:03:07;;;;;;;1.50;1.10;;;36.70;25.90;;;;;;5086425;28;20578;-86
2022/08/07 11:05:44;;;;;;;1.40;1.20;;;35.60;26.60;;;;;;5089846;28;20433;-86
2022/08/07 11:08:17;;;;;;;2.53;0.80;;;35.80;26.60;;;;;;5095074;28;20446;-85
2022/08/07 11:10:49;;;;;;;1.20;0.90;;;37.10;25.80;;;;;;5093267;28;21122;-86
2022/08/07 11:13:23;;;;;;;1.50;1.20;;;38.40;24.60;;;;;;5093231;28;20844;-86
2022/08/07 11:15:54;;;;;;;1.30;1.00;;;37.10;25.20;;;;;;5103706;28;20435;-84
2022/08/07 11:18:29;;;;;;;1.80;1.00;;;37.00;25.70;;;;;;5104303;28;20442;-86
2022/08/07 11:21:04;;;;;;;1.30;0.80;;;36.50;25.40;;;;;;5101562;28;20467;-85
2022/08/07 11:23:37;;;;;;;1.33;1.07;;;36.90;25.20;;;;;;5099420;28;20430;-85
2022/08/07 11:26:13;;;;;;;1.70;1.33;;;36.80;25.70;;;;;;5075035;28;20446;-85
2022/08/07 11:28:46;;;;;;;1.47;0.93;;;38.40;24.60;;;;;;5075038;28;20456;-85
2022/08/07 11:31:30;;;;;;;1.90;1.30;;;39.10;24.20;;;;;;5074072;28;20492;-85
2022/08/07 11:34:05;;;;;;;2.13;1.00;;;39.30;23.80;;;;;;5074105;28;20551;-86
2022/08/07 11:36:40;;;;;;;1.60;1.00;;;39.40;23.80;;;;;;5074519;28;20434;-85
2022/08/07 11:39:16;;;;;;;1.50;0.90;;;39.60;23.70;;;;;;5077739;28;20800;-86
2022/08/07 11:41:54;;;;;;;1.37;0.80;;;40.00;23.40;;;;;;5086415;28;20477;-86
2022/08/07 11:44:32;;;;;;;1.00;0.70;;;40.60;23.10;;;;;;5100159;28;20441;-86
2022/08/07 11:47:08;;;;;;;1.27;0.73;;;39.20;23.40;;;;;;5093468;28;20449;-86
2022/08/07 11:50:02;;;;;;;1.50;0.90;;;38.20;23.60;;;;;;5093142;28;21024;-85
2022/08/07 11:52:45;;;;;;;1.50;0.90;;;39.40;23.60;;;;;;5102826;28;20473;-86
2022/08/07 11:55:25;;;;;;;1.90;1.20;;;39.90;23.10;;;;;;5084363;28;20436;-86
2022/08/07 11:58:02;;;;;;;2.07;1.00;;;40.00;23.10;;;;;;5083294;28;20453;-85
2022/08/07 12:00:40;;;;;;;1.93;1.30;;;39.80;22.90;;;;;;5085006;28;20465;-83
2022/08/07 12:03:51;;;;;;;2.53;0.93;;;40.90;22.40;;;;;;5073891;28;20808;-85
2022/08/07 12:06:44;;;;;;;1.50;1.07;;;40.90;22.20;;;;;;5065400;28;20446;-85
2022/08/07 12:09:15;;;;;;;1.93;1.73;;;39.80;22.70;;;;;;5103774;28;20453;-85
2022/08/07 12:11:47;;;;;;;1.87;1.20;;;38.40;24.00;;;;;;5103798;28;20457;-85
2022/08/07 12:14:20;;;;;;;1.30;1.10;;;39.20;23.50;;;;;;5081359;28;20483;-86
2022/08/07 12:16:51;;;;;;;1.33;1.00;;;39.70;23.40;;;;;;5091788;28;20469;-85
2022/08/07 12:19:27;;;;;;;1.70;1.27;;;38.40;23.40;;;;;;5113743;28;20438;-85
2022/08/07 12:22:02;;;;;;;1.30;1.10;;;38.80;23.40;;;;;;5108071;28;20462;-84
2022/08/07 12:24:37;;;;;;;2.10;0.90;;;39.00;23.20;;;;;;5103077;28;20429;-84
2022/08/07 12:27:10;;;;;;;2.50;1.03;;;38.30;23.40;;;;;;5083787;28;20448;-85
2022/08/07 12:29:51;;;;;;;2.13;1.00;;;37.50;24.20;;;;;;5082875;28;20540;-84
2022/08/07 12:32:23;;;;;;;2.60;0.93;;;37.70;23.90;;;;;;5077618;28;20469;-84
2022/08/07 12:34:52;;;;;;;2.43;1.27;;;37.60;23.20;;;;;;5080732;28;20506;-85
2022/08/07 12:37:20;;;;;;;1.50;1.10;;;37.20;24.10;;;;;;5080550;28;20450;-85
2022/08/07 12:39:50;;;;;;;1.87;1.03;;;38.40;23.80;;;;;;5084207;28;20438;-84
2022/08/07 12:42:21;;;;;;;1.20;0.87;;;38.40;23.40;;;;;;5082611;28;20465;-86
2022/08/07 12:44:51;;;;;;;1.97;0.90;;;37.90;23.80;;;;;;5087163;28;20472;-83
2022/08/07 12:47:26;;;;;;;1.70;1.10;;;36.90;24.60;;;;;;5097322;28;20439;-84
2022/08/07 12:50:02;;;;;;;1.47;1.03;;;37.20;24.50;;;;;;5110942;28;20415;-82
2022/08/07 12:52:38;;;;;;;2.03;1.07;;;36.80;25.00;;;;;;5102946;28;20466;-84
2022/08/07 12:55:09;;;;;;;1.57;1.37;;;38.00;24.10;;;;;;5102258;28;20445;-84
2022/08/07 12:57:39;;;;;;;1.40;1.00;;;39.80;23.30;;;;;;5104449;28;20451;-83
2022/08/07 13:00:09;;;;;;;1.30;0.90;;;39.90;22.70;;;;;;5101996;28;20445;-84
2022/08/07 13:03:01;;;;;;;1.47;0.90;;;39.30;22.80;;;;;;5094954;28;20446;-84
2022/08/07 13:05:55;;;;;;;1.67;1.10;;;39.50;22.70;;;;;;5097758;28;20442;-84
2022/08/07 13:08:35;;;;;;;1.50;1.40;;;40.20;22.40;;;;;;5090897;28;20525;-85
2022/08/07 13:11:10;;;;;;;1.30;1.13;;;39.90;22.50;;;;;;5082435;28;20468;-84
2022/08/07 13:13:48;;;;;;;1.53;1.10;;;38.90;23.30;;;;;;5101863;28;20492;-84
2022/08/07 13:16:26;;;;;;;1.63;1.00;;;37.30;24.40;;;;;;5101539;28;20447;-84
2022/08/07 13:19:21;;;;;;;2.70;1.50;;;36.80;25.10;;;;;;5079700;28;20453;-87